sensor_id;sensor_type;location;lat;lon;timestamp;pressure;altitude;pressure_sealevel;temperature;humidity
57827;BME280;43656;57.746;11.780;2022-11-18T00:00:24;101156.72;;;5.24;92.47
57827;BME280;43656;57.746;11.780;2022-11-18T00:02:50;101170.78;;;5.34;92.55
57827;BME280;43656;57.746;11.780;2022-11-18T00:05:15;101139.69;;;5.25;91.78
57827;BME280;43656;57.746;11.780;2022-11-18T00:07:40;101161.53;;;5.02;93.66
57827;BME280;43656;57.746;11.780;2022-11-18T00:10:06;101172.59;;;5.07;94.39
57827;BME280;43656;57.746;11.780;2022-11-18T00:12:31;101171.44;;;5.36;92.96
57827;BME280;43656;57.746;11.780;2022-11-18T00:15:15;101176.88;;;5.44;91.72
57827;BME280;43656;57.746;11.780;2022-11-18T00:17:41;101185.19;;;5.41;91.97
57827;BME280;43656;57.746;11.780;2022-11-18T00:20:06;101176.44;;;5.31;92.86
57827;BME280;43656;57.746;11.780;2022-11-18T00:22:32;101169.78;;;5.35;92.28
57827;BME280;43656;57.746;11.780;2022-11-18T00:24:57;101177.53;;;5.46;92.22
57827;BME280;43656;57.746;11.780;2022-11-18T00:27:22;101169.22;;;5.23;91.94
57827;BME280;43656;57.746;11.780;2022-11-18T00:29:48;101179.41;;;5.10;93.08
57827;BME280;43656;57.746;11.780;2022-11-18T00:32:13;101179.72;;;5.25;92.66
57827;BME280;43656;57.746;11.780;2022-11-18T00:34:38;101176.13;;;5.34;91.56
57827;BME280;43656;57.746;11.780;2022-11-18T00:37:06;101178.19;;;5.40;91.45
57827;BME280;43656;57.746;11.780;2022-11-18T00:39:32;101170.41;;;5.29;91.48
57827;BME280;43656;57.746;11.780;2022-11-18T00:41:57;101178.00;;;5.41;91.03
57827;BME280;43656;57.746;11.780;2022-11-18T00:44:41;101177.06;;;5.25;91.20
57827;BME280;43656;57.746;11.780;2022-11-18T00:47:06;101178.50;;;5.37;91.02
57827;BME280;43656;57.746;11.780;2022-11-18T00:49:32;101179.88;;;5.23;90.59
57827;BME280;43656;57.746;11.780;2022-11-18T00:51:57;101178.00;;;5.41;89.37
57827;BME280;43656;57.746;11.780;2022-11-18T00:54:23;101189.16;;;5.37;90.32
57827;BME280;43656;57.746;11.780;2022-11-18T00:56:48;101186.59;;;5.27;90.52
57827;BME280;43656;57.746;11.780;2022-11-18T00:59:13;101187.66;;;5.16;90.18
57827;BME280;43656;57.746;11.780;2022-11-18T01:01:39;101182.66;;;5.13;90.11
57827;BME280;43656;57.746;11.780;2022-11-18T01:04:04;101181.59;;;5.32;88.01
57827;BME280;43656;57.746;11.780;2022-11-18T01:06:30;101162.88;;;5.24;87.21
57827;BME280;43656;57.746;11.780;2022-11-18T01:08:55;101181.03;;;5.21;88.06
57827;BME280;43656;57.746;11.780;2022-11-18T01:11:20;101182.38;;;5.25;87.07
57827;BME280;43656;57.746;11.780;2022-11-18T01:14:05;101200.72;;;5.46;86.30
57827;BME280;43656;57.746;11.780;2022-11-18T01:16:30;101190.53;;;5.41;85.91
57827;BME280;43656;57.746;11.780;2022-11-18T01:18:56;101188.84;;;5.40;85.15
57827;BME280;43656;57.746;11.780;2022-11-18T01:21:21;101204.00;;;5.13;86.59
57827;BME280;43656;57.746;11.780;2022-11-18T01:23:47;101197.25;;;5.09;85.92
57827;BME280;43656;57.746;11.780;2022-11-18T01:26:15;101198.00;;;5.19;86.16
57827;BME280;43656;57.746;11.780;2022-11-18T01:28:40;101200.53;;;5.03;87.29
57827;BME280;43656;57.746;11.780;2022-11-18T01:31:11;101202.59;;;5.27;85.86
57827;BME280;43656;57.746;11.780;2022-11-18T01:33:37;101193.16;;;4.97;86.74
57827;BME280;43656;57.746;11.780;2022-11-18T01:36:03;101158.13;;;4.92;86.72
57827;BME280;43656;57.746;11.780;2022-11-18T01:38:28;101203.59;;;5.08;87.13
57827;BME280;43656;57.746;11.780;2022-11-18T01:40:54;101210.69;;;5.17;86.49
57827;BME280;43656;57.746;11.780;2022-11-18T01:43:20;101210.00;;;5.15;86.52
57827;BME280;43656;57.746;11.780;2022-11-18T01:45:48;101209.06;;;5.25;85.53
57827;BME280;43656;57.746;11.780;2022-11-18T01:50:53;101189.72;;;5.05;86.28
57827;BME280;43656;57.746;11.780;2022-11-18T01:53:23;101201.09;;;5.07;86.55
57827;BME280;43656;57.746;11.780;2022-11-18T01:55:51;101213.09;;;5.29;85.49
57827;BME280;43656;57.746;11.780;2022-11-18T01:58:23;101214.97;;;5.10;85.71
57827;BME280;43656;57.746;11.780;2022-11-18T02:00:51;101199.47;;;4.96;86.00
57827;BME280;43656;57.746;11.780;2022-11-18T02:03:16;101207.56;;;5.04;86.21
57827;BME280;43656;57.746;11.780;2022-11-18T02:05:45;101192.09;;;4.90;86.60
57827;BME280;43656;57.746;11.780;2022-11-18T02:08:12;101203.84;;;4.97;86.19
57827;BME280;43656;57.746;11.780;2022-11-18T02:10:38;101221.56;;;5.06;85.92
57827;BME280;43656;57.746;11.780;2022-11-18T02:13:03;101212.81;;;5.14;85.07
57827;BME280;43656;57.746;11.780;2022-11-18T02:16:21;101204.22;;;5.46;83.82
57827;BME280;43656;57.746;11.780;2022-11-18T02:24:21;101204.50;;;5.17;84.39
57827;BME280;43656;57.746;11.780;2022-11-18T02:29:41;101203.50;;;5.18;84.08
57827;BME280;43656;57.746;11.780;2022-11-18T02:37:47;101145.63;;;4.39;87.27
57827;BME280;43656;57.746;11.780;2022-11-18T02:40:35;101200.63;;;4.76;88.32
57827;BME280;43656;57.746;11.780;2022-11-18T02:43:10;101212.16;;;4.94;87.13
57827;BME280;43656;57.746;11.780;2022-11-18T02:45:40;101208.94;;;4.90;87.72
57827;BME280;43656;57.746;11.780;2022-11-18T02:48:11;101210.66;;;5.00;86.71
57827;BME280;43656;57.746;11.780;2022-11-18T02:50:42;101203.13;;;4.95;87.50
57827;BME280;43656;57.746;11.780;2022-11-18T02:53:09;101207.94;;;5.09;86.30
57827;BME280;43656;57.746;11.780;2022-11-18T02:55:37;101201.44;;;4.76;88.07
57827;BME280;43656;57.746;11.780;2022-11-18T02:58:05;101200.44;;;4.59;89.14
57827;BME280;43656;57.746;11.780;2022-11-18T03:00:31;101178.19;;;4.33;90.75
57827;BME280;43656;57.746;11.780;2022-11-18T03:02:57;101213.81;;;4.77;89.04
57827;BME280;43656;57.746;11.780;2022-11-18T03:05:39;101220.66;;;4.62;89.64
57827;BME280;43656;57.746;11.780;2022-11-18T03:08:10;101189.19;;;4.47;88.95
57827;BME280;43656;57.746;11.780;2022-11-18T03:10:59;101222.34;;;4.81;88.18
57827;BME280;43656;57.746;11.780;2022-11-18T03:13:37;101219.16;;;4.95;86.81
57827;BME280;43656;57.746;11.780;2022-11-18T03:16:12;101232.13;;;4.62;88.92
57827;BME280;43656;57.746;11.780;2022-11-18T03:19:12;101227.22;;;4.85;87.78
57827;BME280;43656;57.746;11.780;2022-11-18T03:21:41;101226.16;;;4.78;87.86
57827;BME280;43656;57.746;11.780;2022-11-18T03:24:25;101239.47;;;4.60;87.84
57827;BME280;43656;57.746;11.780;2022-11-18T03:27:02;101230.53;;;4.52;89.14
57827;BME280;43656;57.746;11.780;2022-11-18T03:29:39;101235.84;;;4.52;89.14
57827;BME280;43656;57.746;11.780;2022-11-18T03:32:21;101215.84;;;4.65;87.56
57827;BME280;43656;57.746;11.780;2022-11-18T03:34:51;101236.78;;;4.60;88.22
57827;BME280;43656;57.746;11.780;2022-11-18T03:37:21;101234.59;;;4.74;87.84
57827;BME280;43656;57.746;11.780;2022-11-18T03:39:52;101233.50;;;4.66;88.50
57827;BME280;43656;57.746;11.780;2022-11-18T03:42:24;101241.59;;;4.75;88.14
57827;BME280;43656;57.746;11.780;2022-11-18T03:44:56;101251.88;;;4.69;87.49
57827;BME280;43656;57.746;11.780;2022-11-18T03:47:31;101248.06;;;4.90;86.94
57827;BME280;43656;57.746;11.780;2022-11-18T03:50:02;101252.88;;;4.68;88.05
57827;BME280;43656;57.746;11.780;2022-11-18T03:52:30;101257.19;;;4.69;88.05
57827;BME280;43656;57.746;11.780;2022-11-18T03:55:03;101257.84;;;4.81;88.47
57827;BME280;43656;57.746;11.780;2022-11-18T03:57:36;101257.06;;;4.89;87.28
57827;BME280;43656;57.746;11.780;2022-11-18T04:00:08;101262.94;;;4.75;88.79
57827;BME280;43656;57.746;11.780;2022-11-18T04:02:36;101222.78;;;4.76;87.06
57827;BME280;43656;57.746;11.780;2022-11-18T04:05:09;101259.38;;;5.02;86.96
57827;BME280;43656;57.746;11.780;2022-11-18T04:10:33;101265.91;;;4.89;87.11
57827;BME280;43656;57.746;11.780;2022-11-18T04:13:09;101275.84;;;4.69;87.55
57827;BME280;43656;57.746;11.780;2022-11-18T04:15:37;101263.88;;;4.56;88.39
57827;BME280;43656;57.746;11.780;2022-11-18T04:18:04;101275.84;;;4.69;87.37
57827;BME280;43656;57.746;11.780;2022-11-18T04:20:29;101275.06;;;4.59;88.75
57827;BME280;43656;57.746;11.780;2022-11-18T04:22:56;101282.03;;;4.70;86.97
57827;BME280;43656;57.746;11.780;2022-11-18T04:25:22;101295.97;;;4.64;87.39
57827;BME280;43656;57.746;11.780;2022-11-18T04:27:49;101286.72;;;4.58;87.36
57827;BME280;43656;57.746;11.780;2022-11-18T04:30:15;101287.22;;;4.71;87.30
57827;BME280;43656;57.746;11.780;2022-11-18T04:32:40;101307.50;;;4.82;86.44
57827;BME280;43656;57.746;11.780;2022-11-18T04:35:06;101301.97;;;4.66;86.48
57827;BME280;43656;57.746;11.780;2022-11-18T04:37:31;101298.25;;;4.77;85.83
57827;BME280;43656;57.746;11.780;2022-11-18T04:39:56;101297.19;;;4.69;86.01
57827;BME280;43656;57.746;11.780;2022-11-18T04:42:22;101314.72;;;4.72;85.70
57827;BME280;43656;57.746;11.780;2022-11-18T04:44:47;101314.91;;;4.88;85.16
57827;BME280;43656;57.746;11.780;2022-11-18T04:47:12;101296.66;;;4.66;85.48
57827;BME280;43656;57.746;11.780;2022-11-18T04:49:38;101317.09;;;4.75;85.08
57827;BME280;43656;57.746;11.780;2022-11-18T04:52:04;101252.44;;;4.45;84.72
57827;BME280;43656;57.746;11.780;2022-11-18T04:54:29;101326.94;;;4.92;83.96
57827;BME280;43656;57.746;11.780;2022-11-18T04:56:55;101319.25;;;4.62;85.15
57827;BME280;43656;57.746;11.780;2022-11-18T04:59:23;101325.59;;;4.61;85.75
57827;BME280;43656;57.746;11.780;2022-11-18T05:01:49;101328.22;;;4.70;85.68
57827;BME280;43656;57.746;11.780;2022-11-18T05:04:17;101333.03;;;4.57;86.62
57827;BME280;43656;57.746;11.780;2022-11-18T05:06:43;101330.41;;;4.47;86.62
57827;BME280;43656;57.746;11.780;2022-11-18T05:09:10;101333.41;;;4.62;85.85
57827;BME280;43656;57.746;11.780;2022-11-18T05:11:35;101344.38;;;4.59;85.60
57827;BME280;43656;57.746;11.780;2022-11-18T05:14:19;101337.38;;;4.58;85.93
57827;BME280;43656;57.746;11.780;2022-11-18T05:16:44;101296.09;;;4.35;85.58
57827;BME280;43656;57.746;11.780;2022-11-18T05:19:10;101352.19;;;4.70;84.50
57827;BME280;43656;57.746;11.780;2022-11-18T05:21:35;101360.56;;;4.48;85.83
57827;BME280;43656;57.746;11.780;2022-11-18T05:24:02;101369.13;;;4.42;86.13
57827;BME280;43656;57.746;11.780;2022-11-18T05:26:28;101357.31;;;4.54;86.10
57827;BME280;43656;57.746;11.780;2022-11-18T05:28:53;101360.66;;;4.56;85.89
57827;BME280;43656;57.746;11.780;2022-11-18T05:31:19;101371.44;;;4.64;85.14
57827;BME280;43656;57.746;11.780;2022-11-18T05:33:45;101372.31;;;4.83;83.86
57827;BME280;43656;57.746;11.780;2022-11-18T05:36:13;101379.34;;;4.84;83.98
57827;BME280;43656;57.746;11.780;2022-11-18T05:38:39;101386.88;;;4.61;85.45
57827;BME280;43656;57.746;11.780;2022-11-18T05:41:05;101388.00;;;4.58;84.81
57827;BME280;43656;57.746;11.780;2022-11-18T05:43:31;101385.22;;;4.50;86.06
57827;BME280;43656;57.746;11.780;2022-11-18T05:45:57;101385.16;;;4.69;84.25
57827;BME280;43656;57.746;11.780;2022-11-18T05:48:23;101362.69;;;4.44;84.43
57827;BME280;43656;57.746;11.780;2022-11-18T05:50:50;101394.69;;;4.35;85.70
57827;BME280;43656;57.746;11.780;2022-11-18T05:53:18;101396.22;;;4.37;85.95
57827;BME280;43656;57.746;11.780;2022-11-18T05:58:13;101401.91;;;4.52;85.55
57827;BME280;43656;57.746;11.780;2022-11-18T06:00:39;101411.00;;;4.59;84.94
57827;BME280;43656;57.746;11.780;2022-11-18T06:03:11;101411.28;;;4.56;85.03
57827;BME280;43656;57.746;11.780;2022-11-18T06:05:38;101412.06;;;4.39;85.65
57827;BME280;43656;57.746;11.780;2022-11-18T06:08:03;101385.13;;;4.42;85.59
57827;BME280;43656;57.746;11.780;2022-11-18T06:10:32;101408.63;;;4.56;84.75
57827;BME280;43656;57.746;11.780;2022-11-18T06:13:03;101415.69;;;4.47;85.36
57827;BME280;43656;57.746;11.780;2022-11-18T06:15:38;101418.19;;;4.49;85.25
57827;BME280;43656;57.746;11.780;2022-11-18T06:18:09;101417.53;;;4.37;85.70
57827;BME280;43656;57.746;11.780;2022-11-18T06:20:37;101419.47;;;4.45;85.40
57827;BME280;43656;57.746;11.780;2022-11-18T06:23:04;101406.91;;;4.18;86.10
57827;BME280;43656;57.746;11.780;2022-11-18T06:25:30;101400.31;;;4.22;86.21
57827;BME280;43656;57.746;11.780;2022-11-18T06:27:58;101425.53;;;4.37;86.21
57827;BME280;43656;57.746;11.780;2022-11-18T06:30:25;101424.81;;;4.35;86.35
57827;BME280;43656;57.746;11.780;2022-11-18T06:32:50;101433.81;;;4.24;86.23
57827;BME280;43656;57.746;11.780;2022-11-18T06:35:16;101415.47;;;4.02;87.80
57827;BME280;43656;57.746;11.780;2022-11-18T06:37:41;101438.88;;;4.08;87.90
57827;BME280;43656;57.746;11.780;2022-11-18T06:40:07;101429.63;;;4.03;88.41
57827;BME280;43656;57.746;11.780;2022-11-18T06:42:33;101437.91;;;3.99;89.76
57827;BME280;43656;57.746;11.780;2022-11-18T06:45:17;101425.00;;;3.95;89.17
57827;BME280;43656;57.746;11.780;2022-11-18T06:47:42;101440.16;;;4.04;89.43
57827;BME280;43656;57.746;11.780;2022-11-18T06:50:07;101437.34;;;3.96;91.21
57827;BME280;43656;57.746;11.780;2022-11-18T06:52:33;101437.78;;;3.91;90.91
57827;BME280;43656;57.746;11.780;2022-11-18T06:54:58;101453.03;;;3.99;91.04
57827;BME280;43656;57.746;11.780;2022-11-18T06:57:24;101449.66;;;3.87;92.09
57827;BME280;43656;57.746;11.780;2022-11-18T06:59:49;101413.81;;;3.82;91.34
57827;BME280;43656;57.746;11.780;2022-11-18T07:02:14;101440.28;;;4.03;91.07
57827;BME280;43656;57.746;11.780;2022-11-18T07:04:43;101456.41;;;3.91;92.37
57827;BME280;43656;57.746;11.780;2022-11-18T07:07:08;101443.22;;;3.90;90.72
57827;BME280;43656;57.746;11.780;2022-11-18T07:09:35;101465.78;;;3.86;92.61
57827;BME280;43656;57.746;11.780;2022-11-18T07:12:00;101467.47;;;3.87;93.18
57827;BME280;43656;57.746;11.780;2022-11-18T07:14:26;101472.09;;;3.85;93.34
57827;BME280;43656;57.746;11.780;2022-11-18T07:16:51;101476.44;;;3.86;93.95
57827;BME280;43656;57.746;11.780;2022-11-18T07:19:16;101479.53;;;3.91;93.05
57827;BME280;43656;57.746;11.780;2022-11-18T07:21:42;101479.38;;;3.83;94.19
57827;BME280;43656;57.746;11.780;2022-11-18T07:24:10;101479.66;;;3.89;93.82
57827;BME280;43656;57.746;11.780;2022-11-18T07:26:36;101486.06;;;3.77;96.21
57827;BME280;43656;57.746;11.780;2022-11-18T07:29:02;101487.09;;;3.86;95.33
57827;BME280;43656;57.746;11.780;2022-11-18T07:31:27;101493.41;;;3.85;95.41
57827;BME280;43656;57.746;11.780;2022-11-18T07:33:52;101491.41;;;3.77;97.22
57827;BME280;43656;57.746;11.780;2022-11-18T07:36:20;101498.44;;;3.88;96.47
57827;BME280;43656;57.746;11.780;2022-11-18T07:38:46;101495.63;;;3.89;95.66
57827;BME280;43656;57.746;11.780;2022-11-18T07:41:13;101486.53;;;3.92;95.71
57827;BME280;43656;57.746;11.780;2022-11-18T07:43:39;101499.13;;;3.90;96.56
57827;BME280;43656;57.746;11.780;2022-11-18T07:46:32;101495.06;;;3.86;97.23
57827;BME280;43656;57.746;11.780;2022-11-18T07:49:00;101468.56;;;3.65;98.67
57827;BME280;43656;57.746;11.780;2022-11-18T07:51:28;101486.94;;;3.87;96.86
57827;BME280;43656;57.746;11.780;2022-11-18T07:53:54;101507.94;;;3.90;97.19
57827;BME280;43656;57.746;11.780;2022-11-18T07:56:20;101484.69;;;3.73;97.64
57827;BME280;43656;57.746;11.780;2022-11-18T07:58:46;101484.69;;;3.83;96.48
57827;BME280;43656;57.746;11.780;2022-11-18T08:01:16;101515.53;;;3.95;97.32
57827;BME280;43656;57.746;11.780;2022-11-18T08:03:43;101508.09;;;3.89;98.16
57827;BME280;43656;57.746;11.780;2022-11-18T08:06:11;101519.03;;;3.86;98.32
57827;BME280;43656;57.746;11.780;2022-11-18T08:08:37;101490.16;;;3.71;98.54
57827;BME280;43656;57.746;11.780;2022-11-18T08:11:04;101487.09;;;3.86;97.99
57827;BME280;43656;57.746;11.780;2022-11-18T08:13:32;101514.72;;;3.94;98.42
57827;BME280;43656;57.746;11.780;2022-11-18T08:15:57;101522.00;;;4.02;97.15
57827;BME280;43656;57.746;11.780;2022-11-18T08:18:23;101476.28;;;3.68;98.00
57827;BME280;43656;57.746;11.780;2022-11-18T08:20:48;101515.53;;;3.95;98.16
57827;BME280;43656;57.746;11.780;2022-11-18T08:23:15;101537.25;;;4.00;98.06
57827;BME280;43656;57.746;11.780;2022-11-18T08:25:42;101529.72;;;4.05;98.11
57827;BME280;43656;57.746;11.780;2022-11-18T08:28:08;101533.06;;;4.27;96.79
57827;BME280;43656;57.746;11.780;2022-11-18T08:30:34;101526.78;;;4.28;96.00
57827;BME280;43656;57.746;11.780;2022-11-18T08:33:00;101535.19;;;4.33;95.82
57827;BME280;43656;57.746;11.780;2022-11-18T08:35:27;101537.13;;;4.50;95.07
57827;BME280;43656;57.746;11.780;2022-11-18T08:37:52;101540.50;;;4.52;95.18
57827;BME280;43656;57.746;11.780;2022-11-18T08:40:18;101543.59;;;4.57;93.72
57827;BME280;43656;57.746;11.780;2022-11-18T08:42:43;101540.75;;;4.68;93.96
57827;BME280;43656;57.746;11.780;2022-11-18T08:45:09;101538.81;;;4.51;93.14
57827;BME280;43656;57.746;11.780;2022-11-18T08:47:35;101543.03;;;4.54;93.61
57827;BME280;43656;57.746;11.780;2022-11-18T08:50:06;101543.72;;;4.65;92.52
57827;BME280;43656;57.746;11.780;2022-11-18T08:52:33;101551.13;;;4.81;91.84
57827;BME280;43656;57.746;11.780;2022-11-18T08:54:58;101545.53;;;4.75;91.45
57827;BME280;43656;57.746;11.780;2022-11-18T08:57:23;101548.84;;;4.86;91.46
57827;BME280;43656;57.746;11.780;2022-11-18T08:59:49;101546.06;;;4.88;90.49
57827;BME280;43656;57.746;11.780;2022-11-18T09:02:16;101554.16;;;5.06;89.85
57827;BME280;43656;57.746;11.780;2022-11-18T09:04:42;101547.34;;;4.84;90.28
57827;BME280;43656;57.746;11.780;2022-11-18T09:07:08;101545.06;;;4.89;89.20
57827;BME280;43656;57.746;11.780;2022-11-18T09:09:33;101555.19;;;4.85;88.76
57827;BME280;43656;57.746;11.780;2022-11-18T09:11:59;101556.97;;;5.04;88.20
57827;BME280;43656;57.746;11.780;2022-11-18T09:14:24;101556.56;;;4.89;89.24
57827;BME280;43656;57.746;11.780;2022-11-18T09:16:50;101548.72;;;4.88;87.97
57827;BME280;43656;57.746;11.780;2022-11-18T09:19:16;101547.53;;;5.10;87.44
57827;BME280;43656;57.746;11.780;2022-11-18T09:21:41;101546.91;;;4.88;86.93
57827;BME280;43656;57.746;11.780;2022-11-18T09:24:07;101543.06;;;5.10;85.57
57827;BME280;43656;57.746;11.780;2022-11-18T09:26:35;101540.72;;;4.98;85.24
57827;BME280;43656;57.746;11.780;2022-11-18T09:29:00;101548.41;;;5.10;84.47
57827;BME280;43656;57.746;11.780;2022-11-18T09:31:26;101548.22;;;5.22;82.97
57827;BME280;43656;57.746;11.780;2022-11-18T09:33:51;101539.75;;;5.26;81.86
57827;BME280;43656;57.746;11.780;2022-11-18T09:36:20;101552.19;;;5.45;81.30
57827;BME280;43656;57.746;11.780;2022-11-18T09:38:46;101534.00;;;5.31;81.08
57827;BME280;43656;57.746;11.780;2022-11-18T09:51:56;101566.38;;;5.46;77.23
57827;BME280;43656;57.746;11.780;2022-11-18T09:54:29;101563.00;;;5.53;77.16
57827;BME280;43656;57.746;11.780;2022-11-18T09:56:55;101552.06;;;5.47;77.00
57827;BME280;43656;57.746;11.780;2022-11-18T09:59:23;101567.97;;;5.66;75.96
57827;BME280;43656;57.746;11.780;2022-11-18T10:01:51;101564.78;;;5.53;75.44
57827;BME280;43656;57.746;11.780;2022-11-18T10:04:19;101516.50;;;5.46;73.89
57827;BME280;43656;57.746;11.780;2022-11-18T10:06:46;101575.75;;;5.87;74.93
57827;BME280;43656;57.746;11.780;2022-11-18T10:09:29;101594.31;;;5.79;73.67
57827;BME280;43656;57.746;11.780;2022-11-18T10:12:19;101563.97;;;5.80;73.60
57827;BME280;43656;57.746;11.780;2022-11-18T10:17:38;101586.91;;;5.73;74.26
57827;BME280;43656;57.746;11.780;2022-11-18T10:25:32;101603.56;;;5.84;74.24
57827;BME280;43656;57.746;11.780;2022-11-18T10:28:13;101576.91;;;5.75;74.63
57827;BME280;43656;57.746;11.780;2022-11-18T10:30:39;101603.66;;;5.65;75.63
57827;BME280;43656;57.746;11.780;2022-11-18T10:35:45;101601.72;;;5.95;74.75
57827;BME280;43656;57.746;11.780;2022-11-18T10:40:44;101604.13;;;6.16;74.14
57827;BME280;43656;57.746;11.780;2022-11-18T10:43:40;101601.72;;;5.95;74.58
57827;BME280;43656;57.746;11.780;2022-11-18T10:45:56;101605.41;;;6.11;75.11
57827;BME280;43656;57.746;11.780;2022-11-18T10:48:41;101606.59;;;5.99;74.93
57827;BME280;43656;57.746;11.780;2022-11-18T10:51:21;101607.41;;;6.09;74.20
57827;BME280;43656;57.746;11.780;2022-11-18T10:53:47;101609.69;;;6.04;73.74
57827;BME280;43656;57.746;11.780;2022-11-18T10:56:13;101576.16;;;5.82;73.88
57827;BME280;43656;57.746;11.780;2022-11-18T10:58:45;101602.56;;;6.23;73.12
57827;BME280;43656;57.746;11.780;2022-11-18T11:03:58;101606.00;;;6.51;72.36
57827;BME280;43656;57.746;11.780;2022-11-18T11:14:56;101608.06;;;6.39;71.34
57827;BME280;43656;57.746;11.780;2022-11-18T11:17:32;101613.25;;;6.23;70.50
57827;BME280;43656;57.746;11.780;2022-11-18T11:20:22;101621.84;;;6.17;68.83
57827;BME280;43656;57.746;11.780;2022-11-18T11:22:48;101615.69;;;6.52;68.88
57827;BME280;43656;57.746;11.780;2022-11-18T11:25:19;101621.56;;;6.20;68.11
57827;BME280;43656;57.746;11.780;2022-11-18T11:28:07;101612.47;;;6.30;68.17
57827;BME280;43656;57.746;11.780;2022-11-18T11:33:50;101620.03;;;6.35;67.60
57827;BME280;43656;57.746;11.780;2022-11-18T11:36:37;101625.78;;;6.58;67.76
57827;BME280;43656;57.746;11.780;2022-11-18T11:39:41;101623.41;;;6.73;67.10
57827;BME280;43656;57.746;11.780;2022-11-18T11:45:03;101628.81;;;6.45;67.52
57827;BME280;43656;57.746;11.780;2022-11-18T11:50:18;101630.69;;;6.63;66.91
57827;BME280;43656;57.746;11.780;2022-11-18T11:53:23;101632.03;;;6.67;65.41
57827;BME280;43656;57.746;11.780;2022-11-18T11:56:07;101632.66;;;6.61;66.19
57827;BME280;43656;57.746;11.780;2022-11-18T12:04:18;101623.56;;;6.89;63.47
57827;BME280;43656;57.746;11.780;2022-11-18T12:06:52;101629.69;;;7.07;64.41
57827;BME280;43656;57.746;11.780;2022-11-18T12:14:36;101636.81;;;7.17;63.20
57827;BME280;43656;57.746;11.780;2022-11-18T12:17:13;101647.47;;;7.09;62.67
57827;BME280;43656;57.746;11.780;2022-11-18T12:19:42;101643.34;;;6.96;63.04
57827;BME280;43656;57.746;11.780;2022-11-18T12:22:08;101637.84;;;7.24;63.30
57827;BME280;43656;57.746;11.780;2022-11-18T12:24:36;101654.50;;;6.74;62.45
57827;BME280;43656;57.746;11.780;2022-11-18T12:27:12;101632.03;;;6.67;62.04
57827;BME280;43656;57.746;11.780;2022-11-18T12:32:37;101641.88;;;7.02;60.20
57827;BME280;43656;57.746;11.780;2022-11-18T12:37:43;101638.16;;;6.77;60.96
57827;BME280;43656;57.746;11.780;2022-11-18T12:40:24;101649.00;;;6.57;60.99
57827;BME280;43656;57.746;11.780;2022-11-18T12:42:55;101650.66;;;6.94;61.18
57827;BME280;43656;57.746;11.780;2022-11-18T12:48:28;101654.78;;;6.89;61.79
57827;BME280;43656;57.746;11.780;2022-11-18T12:53:49;101643.88;;;6.82;62.82
57827;BME280;43656;57.746;11.780;2022-11-18T12:56:23;101640.22;;;6.83;63.18
57827;BME280;43656;57.746;11.780;2022-11-18T12:59:00;101644.97;;;6.89;63.29
57827;BME280;43656;57.746;11.780;2022-11-18T13:01:28;101646.63;;;6.90;63.51
57827;BME280;43656;57.746;11.780;2022-11-18T13:04:07;101643.94;;;6.90;63.87
57827;BME280;43656;57.746;11.780;2022-11-18T13:06:35;101646.47;;;6.92;64.42
57827;BME280;43656;57.746;11.780;2022-11-18T13:09:04;101652.75;;;6.82;64.89
57827;BME280;43656;57.746;11.780;2022-11-18T13:11:41;101646.09;;;6.87;64.90
57827;BME280;43656;57.746;11.780;2022-11-18T13:17:22;101643.69;;;7.19;63.61
57827;BME280;43656;57.746;11.780;2022-11-18T13:22:59;101644.16;;;6.97;65.40
57827;BME280;43656;57.746;11.780;2022-11-18T13:25:46;101645.94;;;6.70;67.40
57827;BME280;43656;57.746;11.780;2022-11-18T13:28:56;101650.22;;;6.81;68.07
57827;BME280;43656;57.746;11.780;2022-11-18T13:34:06;101650.13;;;6.55;70.31
57827;BME280;43656;57.746;11.780;2022-11-18T13:36:32;101653.81;;;6.54;71.64
57827;BME280;43656;57.746;11.780;2022-11-18T13:38:59;101651.84;;;6.56;71.76
57827;BME280;43656;57.746;11.780;2022-11-18T13:41:27;101650.06;;;6.65;70.60
57827;BME280;43656;57.746;11.780;2022-11-18T13:55:18;101671.00;;;6.51;72.41
57827;BME280;43656;57.746;11.780;2022-11-18T13:57:49;101655.88;;;6.60;71.70
57827;BME280;43656;57.746;11.780;2022-11-18T14:00:24;101669.69;;;6.55;72.63
57827;BME280;43656;57.746;11.780;2022-11-18T14:02:59;101679.41;;;6.56;72.94
57827;BME280;43656;57.746;11.780;2022-11-18T14:05:26;101676.03;;;6.54;72.36
57827;BME280;43656;57.746;11.780;2022-11-18T14:08:05;101679.47;;;6.65;72.60
57827;BME280;43656;57.746;11.780;2022-11-18T14:10:41;101683.53;;;6.69;72.24
57827;BME280;43656;57.746;11.780;2022-11-18T14:15:42;101684.16;;;6.63;71.97
57827;BME280;43656;57.746;11.780;2022-11-18T14:18:18;101651.66;;;6.40;71.84
57827;BME280;43656;57.746;11.780;2022-11-18T14:20:50;101694.09;;;6.52;72.18
57827;BME280;43656;57.746;11.780;2022-11-18T14:23:16;101696.84;;;6.61;72.08
57827;BME280;43656;57.746;11.780;2022-11-18T14:25:43;101692.09;;;6.54;73.28
57827;BME280;43656;57.746;11.780;2022-11-18T14:30:41;101696.84;;;6.61;73.37
57827;BME280;43656;57.746;11.780;2022-11-18T14:36:08;101698.72;;;6.50;74.33
57827;BME280;43656;57.746;11.780;2022-11-18T14:38:37;101698.56;;;6.52;73.91
57827;BME280;43656;57.746;11.780;2022-11-18T14:41:09;101705.31;;;6.28;75.14
57827;BME280;43656;57.746;11.780;2022-11-18T14:43:35;101701.47;;;6.41;74.65
57827;BME280;43656;57.746;11.780;2022-11-18T14:46:04;101710.25;;;6.33;75.29
57827;BME280;43656;57.746;11.780;2022-11-18T14:48:31;101706.47;;;6.26;75.41
57827;BME280;43656;57.746;11.780;2022-11-18T14:50:56;101708.16;;;6.27;75.33
57827;BME280;43656;57.746;11.780;2022-11-18T14:53:22;101714.88;;;6.31;75.50
57827;BME280;43656;57.746;11.780;2022-11-18T14:55:50;101721.53;;;6.27;76.19
57827;BME280;43656;57.746;11.780;2022-11-18T14:58:16;101696.91;;;5.86;78.12